^^
Station Historical Data
Daily Summary for March 8, 2018 Units:  English    Metric   Both
« Previous Day
Next Day »
Daily Weekly Monthly Yearly Custom
  High: Low: Average:
Temperature: TemperatureF °F 57.7 °F 68.6 °F
Dew Point: DewpointF °F 55.0 °F 57.7 °F
Humidity: Humidity% 53% 69%
Wind Speed: WindSpeedMPHmph -999.9mph -13.4mph
Wind Gust: WindSpeedGustMPHmph - -
Wind- -
Pressure: PressureIn in 29.67 in -
Precipitation: 0.00 in    
Historical Graphs
 
 
Tabular Data for March 8, 2018
Time Temperature Dew Point Pressure Wind Wind Speed Wind Gust Humidity Rainfall Rate (Hourly) solar Conditions
TemperatureF °F DewpointF °F PressureIn in Calm     Humidity% HourlyPrecipIn in SoftwareType W/m2 Conditions
07:44 57.7 °F 55.8 °F 29.79 in North -999.9 mph -999.0 mph 93% 0.00 in meteobridge W/m2
07:50 57.9 °F 55.9 °F 29.79 in Calm     93% 0.00 in meteobridge W/m2
07:56 57.9 °F 55.9 °F 29.79 in Calm     93% 0.00 in meteobridge W/m2
08:02 57.9 °F 55.9 °F 29.79 in South 2.9 mph 5.0 mph 93% 0.00 in meteobridge W/m2
08:09 58.5 °F 56.5 °F 29.79 in Calm   4.0 mph 93% 0.00 in meteobridge W/m2
08:15 58.8 °F 56.8 °F 29.79 in South 2.0 mph 3.0 mph 93% 0.00 in meteobridge W/m2
08:21 59.4 °F 57.0 °F 29.79 in South 4.0 mph 4.0 mph 92% 0.00 in meteobridge W/m2
08:27 59.9 °F 57.6 °F 29.80 in South 2.9 mph 6.0 mph 92% 0.00 in meteobridge W/m2
08:33 60.4 °F 57.7 °F 29.80 in SSE 0.9 mph 7.0 mph 91% 0.00 in meteobridge W/m2
08:39 61.0 °F 58.1 °F 29.80 in SSE 4.0 mph 9.0 mph 90% 0.00 in meteobridge W/m2
08:45 60.8 °F 57.6 °F 29.80 in SSE 2.9 mph 7.0 mph 89% 0.00 in meteobridge W/m2
08:51 61.0 °F 57.7 °F 29.80 in South 2.9 mph 6.0 mph 89% 0.00 in meteobridge W/m2
08:57 61.3 °F 57.7 °F 29.80 in SSW 4.0 mph 6.0 mph 88% 0.00 in meteobridge W/m2
09:03 61.3 °F 57.7 °F 29.80 in South 2.0 mph 6.0 mph 88% 0.00 in meteobridge W/m2
09:09 61.9 °F 58.3 °F 29.80 in SSE 4.0 mph 8.0 mph 88% 0.00 in meteobridge W/m2
09:15 62.2 °F 58.3 °F 29.80 in South 4.0 mph 7.0 mph 87% 0.00 in meteobridge W/m2
09:22 62.2 °F 58.3 °F 29.81 in SSE 0.9 mph 5.0 mph 87% 0.00 in meteobridge W/m2
09:28 62.2 °F 57.9 °F 29.81 in South 2.9 mph 4.0 mph 86% 0.00 in meteobridge W/m2
09:34 62.2 °F 57.7 °F 29.81 in South 0.9 mph 3.0 mph 85% 0.00 in meteobridge W/m2
09:40 62.8 °F 58.3 °F 29.81 in Calm     85% 0.00 in meteobridge W/m2
09:46 62.8 °F 58.3 °F 29.81 in WSW 4.0 mph 6.0 mph 85% 0.00 in meteobridge W/m2
09:52 63.0 °F 58.5 °F 29.81 in Calm   2.0 mph 85% 0.00 in meteobridge W/m2
09:58 63.5 °F 58.6 °F 29.81 in SW 0.9 mph 3.0 mph 84% 0.00 in meteobridge W/m2
10:05 64.9 °F 59.4 °F 29.81 in SW 2.9 mph 5.0 mph 82% 0.00 in meteobridge W/m2
10:11 66.4 °F 60.1 °F 29.82 in Calm   4.0 mph 80% 0.00 in meteobridge W/m2
10:17 68.2 °F 60.3 °F 29.82 in NW 0.9 mph 3.0 mph 76% 0.00 in meteobridge W/m2
10:23 68.9 °F 59.9 °F 29.82 in NNW 2.0 mph 4.0 mph 73% 0.00 in meteobridge W/m2
10:29 68.0 °F 58.6 °F 29.82 in Calm   2.0 mph 72% 0.00 in meteobridge W/m2
10:35 67.8 °F 59.2 °F 29.82 in NNE 0.9 mph 4.0 mph 74% 0.00 in meteobridge W/m2
10:42 67.5 °F 58.8 °F 29.81 in NNE 4.9 mph 5.0 mph 74% 0.00 in meteobridge W/m2
10:48 66.9 °F 58.8 °F 29.81 in NNE 2.9 mph 6.0 mph 75% 0.00 in meteobridge W/m2
10:54 67.1 °F 58.8 °F 29.82 in SE 4.0 mph 6.0 mph 75% 0.00 in meteobridge W/m2
11:00 66.7 °F 58.1 °F 29.81 in SE 2.0 mph 2.0 mph 74% 0.00 in meteobridge W/m2
11:06 65.8 °F 57.7 °F 29.81 in SSW 2.9 mph 5.0 mph 75% 0.00 in meteobridge W/m2
11:12 65.8 °F 58.5 °F 29.81 in Calm   5.0 mph 77% 0.00 in meteobridge W/m2
11:18 66.2 °F 58.5 °F 29.82 in Calm   3.0 mph 76% 0.00 in meteobridge W/m2
11:24 66.6 °F 58.8 °F 29.81 in South 2.9 mph 5.0 mph 76% 0.00 in meteobridge W/m2
11:30 66.7 °F 58.6 °F 29.81 in SSE 4.0 mph 4.0 mph 75% 0.00 in meteobridge W/m2
11:37 67.3 °F 59.0 °F 29.81 in SSE 0.9 mph 3.0 mph 75% 0.00 in meteobridge W/m2
11:43 67.1 °F 58.5 °F 29.80 in Calm   2.0 mph 74% 0.00 in meteobridge W/m2
11:49 68.2 °F 58.8 °F 29.80 in SSE 2.0 mph 2.0 mph 72% 0.00 in meteobridge W/m2
11:55 68.2 °F 58.1 °F 29.81 in SSE 0.9 mph 3.0 mph 70% 0.00 in meteobridge W/m2
12:02 68.4 °F 58.3 °F 29.80 in Calm     70% 0.00 in meteobridge W/m2
12:08 69.3 °F 59.5 °F 29.80 in South 4.9 mph 6.0 mph 71% 0.00 in meteobridge W/m2
12:14 68.4 °F 58.6 °F 29.80 in Calm   5.0 mph 71% 0.00 in meteobridge W/m2
12:20 69.4 °F 59.2 °F 29.80 in South 0.9 mph 3.0 mph 70% 0.00 in meteobridge W/m2
12:26 70.3 °F 59.4 °F 29.80 in South 0.9 mph 1.0 mph 68% 0.00 in meteobridge W/m2
12:33 70.0 °F 59.0 °F 29.79 in Calm   2.0 mph 68% 0.00 in meteobridge W/m2
12:39 69.4 °F 59.2 °F 29.79 in SSE 4.0 mph 7.0 mph 70% 0.00 in meteobridge W/m2
12:45 68.7 °F 59.0 °F 29.79 in SSE 2.0 mph 2.0 mph 71% 0.00 in meteobridge W/m2
12:51 68.2 °F 58.8 °F 29.79 in SE 2.0 mph 2.0 mph 72% 0.00 in meteobridge W/m2
12:57 68.0 °F 59.0 °F 29.78 in SE 2.0 mph 4.0 mph 73% 0.00 in meteobridge W/m2
13:03 68.2 °F 59.2 °F 29.78 in Calm   3.0 mph 73% 0.00 in meteobridge W/m2
13:10 69.3 °F 59.9 °F 29.78 in Calm   1.0 mph 72% 0.00 in meteobridge W/m2
13:16 70.3 °F 60.1 °F 29.77 in Calm   2.0 mph 70% 0.00 in meteobridge W/m2
13:22 70.2 °F 59.5 °F 29.77 in Calm     69% 0.00 in meteobridge W/m2
13:28 70.3 °F 59.7 °F 29.77 in North 4.0 mph 4.0 mph 69% 0.00 in meteobridge W/m2
13:34 70.2 °F 59.2 °F 29.76 in NNW 2.0 mph 7.0 mph 68% 0.00 in meteobridge W/m2
13:40 70.0 °F 59.4 °F 29.76 in NNW 2.9 mph 4.0 mph 69% 0.00 in meteobridge W/m2
13:47 71.6 °F 60.4 °F 29.76 in NNE 2.0 mph 4.0 mph 68% 0.00 in meteobridge W/m2
13:53 72.3 °F 59.9 °F 29.76 in ESE 0.9 mph 3.0 mph 65% 0.00 in meteobridge W/m2
13:59 73.6 °F 60.6 °F 29.75 in Calm   1.0 mph 64% 0.00 in meteobridge W/m2
14:05 74.8 °F 61.0 °F 29.75 in ESE 0.9 mph 4.0 mph 62% 0.00 in meteobridge W/m2
14:11 73.9 °F 60.1 °F 29.74 in ESE 0.9 mph 3.0 mph 62% 0.00 in meteobridge W/m2
14:17 73.2 °F 60.3 °F 29.74 in ESE 2.9 mph 4.0 mph 64% 0.00 in meteobridge W/m2
14:23 73.4 °F 60.1 °F 29.74 in South 2.0 mph 6.0 mph 63% 0.00 in meteobridge W/m2
14:29 73.2 °F 59.4 °F 29.74 in South 6.0 mph 10.0 mph 62% 0.00 in meteobridge W/m2
14:35 73.2 °F 59.4 °F 29.73 in South 8.9 mph 11.0 mph 62% 0.00 in meteobridge W/m2
14:42 73.6 °F 59.4 °F 29.73 in SSE 6.9 mph 10.0 mph 61% 0.00 in meteobridge W/m2
14:48 73.0 °F 58.8 °F 29.72 in SSE 4.0 mph 6.0 mph 61% 0.00 in meteobridge W/m2
14:54 73.6 °F 61.2 °F 29.72 in SSE 4.9 mph 7.0 mph 65% 0.00 in meteobridge W/m2
15:00 75.0 °F 59.2 °F 29.72 in South 11.0 mph 14.0 mph 58% 0.00 in meteobridge W/m2
15:06 75.0 °F 58.3 °F 29.72 in SSW 6.9 mph 11.0 mph 56% 0.00 in meteobridge W/m2
15:12 75.0 °F 59.7 °F 29.71 in SE 11.0 mph 11.0 mph 59% 0.00 in meteobridge W/m2
15:18 75.7 °F 60.4 °F 29.71 in SSE 6.0 mph 13.0 mph 59% 0.00 in meteobridge W/m2
15:24 74.1 °F 58.8 °F 29.70 in SSE 2.0 mph 3.0 mph 59% 0.00 in meteobridge W/m2
15:31 74.1 °F 58.5 °F 29.70 in SSW 6.0 mph 12.0 mph 58% 0.00 in meteobridge W/m2
15:37 75.6 °F 58.3 °F 29.70 in SSE 12.1 mph 12.1 mph 55% 0.00 in meteobridge W/m2
15:43 76.1 °F 59.7 °F 29.70 in SSW 10.1 mph 14.0 mph 57% 0.00 in meteobridge W/m2
15:49 75.6 °F 58.8 °F 29.70 in South 4.9 mph 10.0 mph 56% 0.00 in meteobridge W/m2
15:55 75.6 °F 59.7 °F 29.70 in SSE 4.0 mph 10.0 mph 58% 0.00 in meteobridge W/m2
16:01 74.8 °F 59.0 °F 29.70 in SE 8.9 mph 13.0 mph 58% 0.00 in meteobridge W/m2
16:07 74.1 °F 58.5 °F 29.69 in South 10.1 mph 16.0 mph 58% 0.00 in meteobridge W/m2
16:13 74.1 °F 57.9 °F 29.69 in South 8.1 mph 13.0 mph 57% 0.00 in meteobridge W/m2
16:20 74.1 °F 57.4 °F 29.69 in South 13.0 mph 13.0 mph 56% 0.00 in meteobridge W/m2
16:26 73.0 °F 57.4 °F 29.69 in SSE 6.0 mph 12.0 mph 58% 0.00 in meteobridge W/m2
16:32 74.3 °F 58.1 °F 29.69 in South 4.9 mph 12.0 mph 57% 0.00 in meteobridge W/m2
16:38 74.5 °F 58.3 °F 29.68 in South 14.1 mph 14.1 mph 57% 0.00 in meteobridge W/m2
16:44 75.0 °F 57.7 °F 29.68 in SSE 8.1 mph 11.0 mph 55% 0.00 in meteobridge W/m2
16:50 75.4 °F 57.0 °F 29.68 in SSE 4.9 mph 11.0 mph 53% 0.00 in meteobridge W/m2
16:57 75.4 °F 57.6 °F 29.68 in SSE 4.9 mph 11.0 mph 54% 0.00 in meteobridge W/m2
17:03 74.8 °F 57.0 °F 29.67 in South 4.9 mph 11.0 mph 54% 0.00 in meteobridge W/m2
17:09 74.5 °F 56.7 °F 29.67 in South 4.0 mph 7.0 mph 54% 0.00 in meteobridge W/m2
17:15 74.8 °F 56.5 °F 29.67 in SSE 10.1 mph 11.0 mph 53% 0.00 in meteobridge W/m2
17:21 74.7 °F 56.5 °F 29.67 in SSE 4.9 mph 11.0 mph 53% 0.00 in meteobridge W/m2
17:27 74.7 °F 56.8 °F 29.67 in SSE 4.0 mph 10.0 mph 54% 0.00 in meteobridge W/m2
17:33 74.1 °F 56.8 °F 29.67 in South 4.9 mph 11.0 mph 55% 0.00 in meteobridge W/m2
17:39 73.9 °F 57.2 °F 29.67 in South 8.1 mph 14.0 mph 56% 0.00 in meteobridge W/m2
17:45 73.4 °F 56.7 °F 29.67 in South 8.9 mph 14.0 mph 56% 0.00 in meteobridge W/m2
17:51 73.4 °F 57.7 °F 29.67 in South 10.1 mph 10.1 mph 58% 0.00 in meteobridge W/m2
17:58 73.2 °F 57.0 °F 29.67 in SSW 4.9 mph 14.0 mph 57% 0.00 in meteobridge W/m2
18:04 72.5 °F 57.4 °F 29.67 in South 6.0 mph 15.0 mph 59% 0.00 in meteobridge W/m2
18:10 72.3 °F 58.1 °F 29.67 in SE 15.0 mph 15.0 mph 61% 0.00 in meteobridge W/m2
18:16 72.1 °F 57.0 °F 29.67 in South 10.1 mph 15.0 mph 59% 0.00 in meteobridge W/m2
18:22 72.1 °F 57.6 °F 29.67 in South 4.9 mph 15.0 mph 60% 0.00 in meteobridge W/m2
18:28 72.0 °F 57.4 °F 29.67 in South 4.9 mph 10.0 mph 60% 0.00 in meteobridge W/m2
18:34 71.4 °F 56.8 °F 29.67 in South 13.0 mph 13.0 mph 60% 0.00 in meteobridge W/m2
18:41 71.1 °F 55.9 °F 29.67 in SSE 8.1 mph 15.0 mph 59% 0.00 in meteobridge W/m2
18:47 70.7 °F 56.1 °F 29.68 in South 8.1 mph 12.0 mph 60% 0.00 in meteobridge W/m2
18:53 70.5 °F 56.5 °F 29.68 in South 2.9 mph 9.0 mph 61% 0.00 in meteobridge W/m2
18:59 70.0 °F 55.9 °F 29.68 in SSE 8.1 mph 13.0 mph 61% 0.00 in meteobridge W/m2
19:05 69.6 °F 55.0 °F 29.69 in South 4.0 mph 4.0 mph 60% 0.00 in meteobridge W/m2
19:12 69.6 °F 55.0 °F 29.69 in South 4.0 mph -999.0 mph 60% 0.00 in meteobridge W/m2
19:18 69.6 °F 55.0 °F 29.69 in North -999.9 mph -999.0 mph 60% 0.00 in meteobridge W/m2
Regenstein, Windhoek, Namibia
Compliments of Weather Underground - 2.5 mb